Aérodrome :
LOGIN :

S'inscrire | Disclaimer

   EN    FR    IT 

 










Légende :    VFR   VFR Marginal   IFR   IFR Intensif   IFR Très Intensif
Visi : 
Plafond : 
>= 8 km
>= 3000ft
5 à 8 km
1000 à 3000 ft
1500m à 5 km
500 à 1000 ft
800 à 1500m
200 à 500 ft
< 800m
< 200 ft
Symboles :   Orages  Brouillard  Fortes neiges  Fortes précipitations  Vent > 20 kt
SIGMETs :   Divers  Orages  Givrage  Turbulence  Onde Orograph.  Cendres Volcan.






- Altitude de l'aérodrome : 65 ft
- Code IATA : PIK


EGPK - Glasgow Prestwick

DERNIER METAR :
  • 161150Z 32012KT 9999 -RA SCT020 BKN040 15/13 Q1010

METARs EXPIRÉS :
  • 161120Z 31013KT 9999 -RA SCT020 BKN040 15/13 Q1010
  • 161050Z 32013KT 9999 FEW020 BKN040 15/13 Q1009
  • 161020Z 31013KT 9999 FEW012 BKN039 15/13 Q1009
  • 160950Z 30010KT 9999 VCSH FEW010 BKN045 15/14 Q1009
  • 160920Z 31010KT 9999 -RA FEW010 BKN046 15/14 Q1009
  • 160850Z 30007KT 9999 -RA FEW010 BKN046 16/14 Q1009
  • 160820Z 28005KT 9999 FEW010 BKN046 16/14 Q1008
  • 160750Z 00000KT 9999 SCT049 16/13 Q1008
  • 160720Z VRB01KT 9999 SCT030 15/14 Q1008

TAF TAF EGPK
Valide du 16 à 12h jusqu'au 17 à 12h UTC


161104Z 1612/1712 30010KT 9999 FEW020 SCT040
BECMG 1621/1624 24004KT
PROB40
TEMPO 1700/1708 BKN012



MET'MAP, la Météo Aéronautique d'un coup d'oeil ! - Copyright ORBIFLY Décembre 2007 - Disclaimer

ORBIFLY MET'MAP TEAM :

Programmation & Développement : Alexandra Zaïnal
Sur une idée originale de : Baudouin d'Aumeries
Soutien technique & logistique : Manuel Goepfert
Assistance : Marc-Olivier Méhu




SOURCES & CREDITS :

   NOAA